createdAt,value
2019-05-09T00:00:44.010Z,98743.96
2019-05-09T00:03:15.721Z,98738.35
2019-05-09T00:05:46.464Z,98740.80
2019-05-09T00:08:18.259Z,98734.25
2019-05-09T00:10:49.902Z,98738.63
2019-05-09T00:13:23.746Z,98734.95
2019-05-09T00:15:55.347Z,98730.61
2019-05-09T00:18:26.847Z,98739.86
2019-05-09T00:21:04.893Z,98737.70
2019-05-09T00:23:36.766Z,98736.97
2019-05-09T00:26:07.458Z,98748.05
2019-05-09T00:28:43.986Z,98748.58
2019-05-09T00:31:29.782Z,98750.11
2019-05-09T00:34:04.151Z,98745.39
2019-05-09T00:36:35.990Z,98746.66
2019-05-09T00:39:08.740Z,98753.63
2019-05-09T00:41:40.395Z,98751.66
2019-05-09T00:44:19.312Z,98749.29
2019-05-09T00:47:06.634Z,98739.16
2019-05-09T00:49:38.345Z,98751.68
2019-05-09T00:52:10.269Z,98751.68
2019-05-09T00:54:43.769Z,98745.92
2019-05-09T00:57:34.365Z,98748.55
2019-05-09T01:00:14.572Z,98760.70
2019-05-09T01:02:45.803Z,98748.96
2019-05-09T01:05:17.365Z,98750.50
2019-05-09T01:07:49.062Z,98749.14
2019-05-09T01:10:20.737Z,98755.08
2019-05-09T01:12:54.052Z,98757.03
2019-05-09T01:15:25.306Z,98757.80
2019-05-09T01:17:56.841Z,98757.80
2019-05-09T01:20:28.754Z,98758.92
2019-05-09T01:22:59.453Z,98751.00
2019-05-09T01:25:33.335Z,98757.36
2019-05-09T01:28:04.762Z,98763.41
2019-05-09T01:30:35.555Z,98754.02
2019-05-09T01:33:35.263Z,98760.10
2019-05-09T01:36:07.340Z,98760.10
2019-05-09T01:38:39.299Z,98765.45
2019-05-09T01:41:24.682Z,98764.80
2019-05-09T01:43:44.443Z,98776.56
2019-05-09T01:46:16.025Z,98776.56
2019-05-09T01:48:47.794Z,98768.41
2019-05-09T01:51:18.462Z,98773.16
2019-05-09T01:53:53.653Z,98774.61
2019-05-09T01:56:24.735Z,98764.16
2019-05-09T01:58:55.489Z,98761.25
2019-05-09T02:01:27.390Z,98766.55
2019-05-09T02:03:59.310Z,98763.97
2019-05-09T02:06:32.772Z,98764.59
2019-05-09T02:09:06.798Z,98775.58
2019-05-09T02:11:42.551Z,98776.02
2019-05-09T02:14:14.701Z,98792.72
2019-05-09T02:16:53.802Z,98785.45
2019-05-09T02:19:33.265Z,98782.20
2019-05-09T02:22:08.458Z,98782.20
2019-05-09T02:24:40.072Z,98784.29
2019-05-09T02:27:13.247Z,98781.66
2019-05-09T02:29:45.357Z,98776.76
2019-05-09T02:32:17.073Z,98781.28
2019-05-09T02:34:48.739Z,98783.08
2019-05-09T02:37:19.461Z,98771.67
2019-05-09T02:39:51.309Z,98788.55
2019-05-09T02:42:23.069Z,98782.82
2019-05-09T02:44:54.741Z,98778.00
2019-05-09T02:47:28.913Z,98776.47
2019-05-09T02:49:59.795Z,98777.51
2019-05-09T02:52:31.630Z,98767.22
2019-05-09T02:55:03.349Z,98781.37
2019-05-09T02:57:37.446Z,98781.37
2019-05-09T03:00:29.013Z,98783.36
2019-05-09T03:03:08.945Z,98779.05
2019-05-09T03:05:39.067Z,98780.81
2019-05-09T03:08:11.297Z,98779.22
2019-05-09T03:10:43.268Z,98767.70
2019-05-09T03:13:14.801Z,98777.74
2019-05-09T03:15:49.444Z,98778.09
2019-05-09T03:18:21.388Z,98790.09
2019-05-09T03:21:03.046Z,98783.63
2019-05-09T03:23:34.784Z,98768.67
2019-05-09T03:26:08.437Z,98770.62
2019-05-09T03:28:49.248Z,98767.81
2019-05-09T03:31:21.917Z,98775.05
2019-05-09T03:33:53.724Z,98772.95
2019-05-09T03:36:24.480Z,98784.13
2019-05-09T03:38:57.836Z,98791.16
2019-05-09T03:41:29.778Z,98783.30
2019-05-09T03:44:00.622Z,98780.72
2019-05-09T03:46:48.529Z,98792.33
2019-05-09T03:49:20.302Z,98792.33
2019-05-09T03:51:51.813Z,98792.95
2019-05-09T03:54:23.379Z,98796.80
2019-05-09T03:57:03.052Z,98799.42
2019-05-09T03:59:35.050Z,98799.86
2019-05-09T04:02:09.828Z,98798.50
2019-05-09T04:04:40.258Z,98800.58
2019-05-09T04:07:12.255Z,98807.05
2019-05-09T04:09:43.978Z,98802.58
2019-05-09T04:12:17.958Z,98802.67
2019-05-09T04:14:49.415Z,98792.62
2019-05-09T04:17:20.830Z,98795.14
2019-05-09T04:19:52.753Z,98796.17
2019-05-09T04:22:23.505Z,98802.14
2019-05-09T04:24:57.644Z,98796.80
2019-05-09T04:29:29.769Z,98813.27
2019-05-09T04:32:00.855Z,98816.52
2019-05-09T04:34:32.814Z,98810.22
2019-05-09T04:37:04.711Z,98821.24
2019-05-09T04:39:35.759Z,98817.70
2019-05-09T04:42:08.401Z,98822.70
2019-05-09T04:44:49.637Z,98805.83
2019-05-09T04:47:19.364Z,98805.83
2019-05-09T04:49:51.306Z,98810.39
2019-05-09T04:52:22.882Z,98813.00
2019-05-09T04:54:57.468Z,98818.47
2019-05-09T04:57:29.332Z,98825.50
2019-05-09T05:00:01.054Z,98830.70
2019-05-09T05:02:44.058Z,98822.78
2019-05-09T05:05:17.952Z,98828.08
2019-05-09T05:07:49.305Z,98834.67
2019-05-09T05:10:20.827Z,98835.20
2019-05-09T05:12:52.599Z,98841.58
2019-05-09T05:15:24.335Z,98824.88
2019-05-09T05:17:58.237Z,98824.88
2019-05-09T05:20:31.402Z,98846.08
2019-05-09T05:23:19.057Z,98847.64
2019-05-09T05:25:50.774Z,98850.75
2019-05-09T05:28:21.487Z,98854.83
2019-05-09T05:30:53.302Z,98857.78
2019-05-09T05:33:40.543Z,98847.02
2019-05-09T05:36:12.306Z,98857.69
2019-05-09T05:38:44.393Z,98858.04
2019-05-09T05:41:18.145Z,98856.77
2019-05-09T05:43:49.410Z,98862.64
2019-05-09T05:46:51.531Z,98860.84
2019-05-09T05:49:23.358Z,98867.41
2019-05-09T05:51:57.494Z,98870.27
2019-05-09T05:54:28.749Z,98870.73
2019-05-09T05:56:59.640Z,98863.38
2019-05-09T05:59:31.388Z,98865.37
2019-05-09T06:02:03.316Z,98861.70
2019-05-09T06:04:35.260Z,98862.44
2019-05-09T06:07:08.064Z,98863.16
2019-05-09T06:09:39.879Z,98857.72
2019-05-09T06:12:11.742Z,98853.93
2019-05-09T06:14:42.464Z,98854.11
2019-05-09T06:17:14.303Z,98847.61
2019-05-09T06:19:48.224Z,98851.50
2019-05-09T06:22:20.585Z,98858.63
2019-05-09T06:24:52.422Z,98870.88
2019-05-09T06:27:24.289Z,98870.88
2019-05-09T06:29:58.082Z,98871.13
2019-05-09T06:32:29.392Z,98868.53
2019-05-09T06:35:01.063Z,98858.50
2019-05-09T06:37:32.774Z,98879.77
2019-05-09T06:40:03.514Z,98875.95
2019-05-09T06:42:37.839Z,98870.60
2019-05-09T06:45:31.775Z,98867.97
2019-05-09T06:48:03.649Z,98874.19
2019-05-09T06:50:37.298Z,98876.08
2019-05-09T06:53:08.741Z,98876.08
2019-05-09T06:55:39.490Z,98870.98
2019-05-09T06:58:29.310Z,98869.37
2019-05-09T07:01:18.266Z,98871.23
2019-05-09T07:03:52.446Z,98868.19
2019-05-09T07:06:29.651Z,98868.72
2019-05-09T07:09:14.261Z,98856.45
2019-05-09T07:11:45.474Z,98852.83
2019-05-09T07:14:33.042Z,98852.39
2019-05-09T07:17:03.320Z,98851.86
2019-05-09T07:19:35.065Z,98859.19
2019-05-09T07:22:23.430Z,98853.09
2019-05-09T07:25:18.652Z,98856.88
2019-05-09T07:27:50.354Z,98862.83
2019-05-09T07:30:40.906Z,98859.66
2019-05-09T07:33:38.398Z,98861.73
2019-05-09T07:36:10.301Z,98865.72
2019-05-09T07:38:41.821Z,98864.23
2019-05-09T07:41:13.649Z,98854.27
2019-05-09T07:43:47.628Z,98854.62
2019-05-09T07:46:28.430Z,98854.62
2019-05-09T07:49:03.758Z,98855.58
2019-05-09T07:51:34.482Z,98856.81
2019-05-09T07:54:21.232Z,98859.70
2019-05-09T07:56:39.775Z,98859.59
2019-05-09T07:59:10.452Z,98853.20
2019-05-09T08:01:42.423Z,98856.37
2019-05-09T08:04:14.026Z,98861.03
2019-05-09T08:06:48.430Z,98856.70
2019-05-09T08:09:19.331Z,98856.67
2019-05-09T08:11:51.029Z,98856.67
2019-05-09T08:14:22.786Z,98859.03
2019-05-09T08:19:38.992Z,98865.66
2019-05-09T08:22:10.798Z,98865.09
2019-05-09T08:24:42.409Z,98856.39
2019-05-09T08:27:14.058Z,98865.30
2019-05-09T08:29:47.875Z,98855.40
2019-05-09T08:32:19.263Z,98854.78
2019-05-09T08:34:50.862Z,98854.78
2019-05-09T08:37:22.426Z,98855.84
2019-05-09T08:39:54.066Z,98847.96
2019-05-09T08:42:25.846Z,98859.55
2019-05-09T08:44:57.896Z,98866.81
2019-05-09T08:47:29.772Z,98873.42
2019-05-09T08:50:13.073Z,98873.91
2019-05-09T08:52:45.002Z,98863.47
2019-05-09T08:55:17.470Z,98875.53
2019-05-09T08:57:49.378Z,98871.00
2019-05-09T09:00:21.019Z,98871.00
2019-05-09T09:02:52.791Z,98880.84
2019-05-09T09:05:24.416Z,98870.28
2019-05-09T09:07:57.802Z,98871.00
2019-05-09T09:10:29.552Z,98874.25
2019-05-09T09:13:01.306Z,98876.80
2019-05-09T09:15:55.818Z,98880.06
2019-05-09T09:18:05.494Z,98870.37
2019-05-09T09:20:37.942Z,98875.36
2019-05-09T09:23:09.848Z,98872.93
2019-05-09T09:25:44.745Z,98878.62
2019-05-09T09:28:15.451Z,98875.89
2019-05-09T09:30:48.501Z,98874.83
2019-05-09T09:33:19.479Z,98874.38
2019-05-09T09:35:51.641Z,98855.59
2019-05-09T09:38:23.395Z,98863.73
2019-05-09T09:43:39.283Z,98852.30
2019-05-09T09:46:14.667Z,98852.30
2019-05-09T09:48:44.399Z,98861.50
2019-05-09T09:51:18.331Z,98861.50
2019-05-09T09:53:49.494Z,98858.33
2019-05-09T09:56:22.605Z,98857.33
2019-05-09T09:59:08.365Z,98856.34
2019-05-09T10:01:42.318Z,98858.28
2019-05-09T10:04:23.743Z,98857.70
2019-05-09T10:06:53.147Z,98849.32
2019-05-09T10:09:24.775Z,98854.36
2019-05-09T10:12:00.039Z,98849.34
2019-05-09T10:14:33.390Z,98851.93
2019-05-09T10:17:33.312Z,98840.33
2019-05-09T10:20:22.271Z,98843.98
2019-05-09T10:23:00.272Z,98838.80
2019-05-09T10:25:27.670Z,98821.77
2019-05-09T10:27:59.373Z,98821.77
2019-05-09T10:30:38.167Z,98838.65
2019-05-09T10:33:09.429Z,98835.05
2019-05-09T10:35:41.315Z,98835.05
2019-05-09T10:38:13.321Z,98833.16
2019-05-09T10:40:48.268Z,98840.71
2019-05-09T10:43:39.015Z,98837.98
2019-05-09T10:46:46.274Z,98837.57
2019-05-09T10:49:03.634Z,98832.28
2019-05-09T10:51:34.531Z,98826.75
2019-05-09T10:54:08.113Z,98816.89
2019-05-09T10:56:39.800Z,98816.89
2019-05-09T10:59:10.487Z,98829.77
2019-05-09T11:01:42.305Z,98830.92
2019-05-09T11:04:14.580Z,98828.41
2019-05-09T11:11:49.292Z,98831.25
2019-05-09T11:14:32.101Z,98831.25
2019-05-09T11:17:07.714Z,98829.98
2019-05-09T11:19:28.868Z,98823.88
2019-05-09T11:22:00.781Z,98827.38
2019-05-09T11:24:42.914Z,98817.64
2019-05-09T11:27:08.283Z,98811.95
2019-05-09T11:29:39.303Z,98808.49
2019-05-09T11:32:10.875Z,98817.32
2019-05-09T11:34:42.421Z,98826.31
2019-05-09T11:37:14.032Z,98825.73
2019-05-09T11:39:48.198Z,98815.50
2019-05-09T11:42:19.751Z,98816.58
2019-05-09T11:44:50.534Z,98811.66
2019-05-09T11:47:32.382Z,98809.23
2019-05-09T11:49:57.811Z,98809.23
2019-05-09T11:52:29.329Z,98802.80
2019-05-09T11:55:01.301Z,98802.80
2019-05-09T11:57:32.858Z,98807.26
2019-05-09T12:00:05.046Z,98808.62
2019-05-09T12:02:38.585Z,98808.62
2019-05-09T12:05:09.456Z,98810.76
2019-05-09T12:07:41.378Z,98814.84
2019-05-09T12:10:13.068Z,98799.78
2019-05-09T12:12:47.703Z,98798.72
2019-05-09T12:15:18.773Z,98800.70
2019-05-09T12:17:57.912Z,98811.66
2019-05-09T12:20:24.062Z,98805.61
2019-05-09T12:22:58.193Z,98796.69
2019-05-09T12:25:29.364Z,98787.95
2019-05-09T12:28:01.014Z,98787.95
2019-05-09T12:30:32.843Z,98808.41
2019-05-09T12:33:04.377Z,98812.41
2019-05-09T12:35:38.493Z,98804.70
2019-05-09T12:38:09.577Z,98800.00
2019-05-09T12:40:41.730Z,98798.92
2019-05-09T12:43:12.443Z,98798.92
2019-05-09T12:45:44.055Z,98801.48
2019-05-09T12:48:18.629Z,98805.27
2019-05-09T12:50:49.297Z,98808.38
2019-05-09T12:53:21.289Z,98805.56
2019-05-09T12:56:00.744Z,98808.44
2019-05-09T12:58:32.746Z,98799.09
2019-05-09T13:01:03.555Z,98802.63
2019-05-09T13:03:38.014Z,98784.24
2019-05-09T13:06:08.735Z,98784.24
2019-05-09T13:08:39.472Z,98799.87
2019-05-09T13:11:11.294Z,98799.78
2019-05-09T13:13:43.307Z,98815.42
2019-05-09T13:16:47.466Z,98796.98
2019-05-09T13:19:12.304Z,98799.42
2019-05-09T13:21:43.817Z,98808.16
2019-05-09T13:24:19.264Z,98806.63
2019-05-09T13:26:51.442Z,98796.48
2019-05-09T13:29:23.266Z,98794.39
2019-05-09T13:31:57.666Z,98799.38
2019-05-09T13:34:29.274Z,98794.55
2019-05-09T13:37:00.801Z,98798.50
2019-05-09T13:39:32.591Z,98798.42
2019-05-09T13:42:04.301Z,98799.25
2019-05-09T13:44:41.153Z,98799.25
2019-05-09T13:47:11.000Z,98797.73
2019-05-09T13:49:42.753Z,98797.73
2019-05-09T13:52:13.472Z,98805.98
2019-05-09T13:54:45.359Z,98800.53
2019-05-09T13:57:18.799Z,98796.69
2019-05-09T13:59:50.794Z,98796.82
2019-05-09T14:02:22.615Z,98796.73
2019-05-09T14:04:54.390Z,98780.89
2019-05-09T14:07:27.933Z,98780.89
2019-05-09T14:09:59.731Z,98797.31
2019-05-09T14:12:30.521Z,98796.20
2019-05-09T14:15:02.298Z,98802.59
2019-05-09T14:17:46.032Z,98800.24
2019-05-09T14:20:08.897Z,98806.75
2019-05-09T14:22:40.977Z,98797.44
2019-05-09T14:25:12.759Z,98802.59
2019-05-09T14:27:48.740Z,98815.05
2019-05-09T14:30:19.597Z,98808.78
2019-05-09T14:32:50.729Z,98814.72
2019-05-09T14:35:21.507Z,98811.83
2019-05-09T14:37:53.754Z,98791.17
2019-05-09T14:40:25.451Z,98791.17
2019-05-09T14:42:57.863Z,98808.88
2019-05-09T14:45:29.798Z,98804.61
2019-05-09T14:48:01.346Z,98807.26
2019-05-09T14:50:33.298Z,98809.45
2019-05-09T14:53:04.804Z,98814.54
2019-05-09T14:55:39.165Z,98808.33
2019-05-09T14:58:10.299Z,98813.32
2019-05-09T15:00:41.852Z,98821.50
2019-05-09T15:03:13.755Z,98821.31
2019-05-09T15:05:45.399Z,98817.23
2019-05-09T15:08:18.088Z,98814.79
2019-05-09T15:10:49.829Z,98816.44
2019-05-09T15:13:21.737Z,98820.53
2019-05-09T15:15:52.764Z,98823.65
2019-05-09T15:18:24.738Z,98808.88
2019-05-09T15:20:57.999Z,98819.56
2019-05-09T15:23:29.389Z,98821.89
2019-05-09T15:26:01.062Z,98821.39
2019-05-09T15:28:32.780Z,98820.02
2019-05-09T15:31:04.473Z,98820.53
2019-05-09T15:33:37.504Z,98827.06
2019-05-09T15:36:09.122Z,98810.09
2019-05-09T15:38:40.841Z,98810.09
2019-05-09T15:41:12.573Z,98825.52
2019-05-09T15:43:44.381Z,98821.28
2019-05-09T15:46:24.746Z,98821.28
2019-05-09T15:48:55.489Z,98815.30
2019-05-09T15:51:27.930Z,98810.84
2019-05-09T15:54:00.049Z,98815.15
2019-05-09T15:56:31.770Z,98812.13
2019-05-09T15:59:03.375Z,98807.97
2019-05-09T16:01:35.059Z,98812.73
2019-05-09T16:04:08.610Z,98805.77
2019-05-09T16:06:40.438Z,98805.63
2019-05-09T16:09:12.247Z,98798.81
2019-05-09T16:11:44.365Z,98801.93
2019-05-09T16:14:18.447Z,98804.48
2019-05-09T16:16:49.875Z,98803.58
2019-05-09T16:19:21.733Z,98802.51
2019-05-09T16:21:52.480Z,98802.13
2019-05-09T16:24:24.447Z,98801.44
2019-05-09T16:26:57.839Z,98809.16
2019-05-09T16:29:32.330Z,98805.31
2019-05-09T16:32:03.301Z,98806.28
2019-05-09T16:34:35.050Z,98801.40
2019-05-09T16:37:07.626Z,98808.75
2019-05-09T16:39:39.745Z,98810.59
2019-05-09T16:42:10.435Z,98808.08
2019-05-09T16:44:42.320Z,98814.32
2019-05-09T16:47:14.306Z,98814.78
2019-05-09T16:49:47.751Z,98812.89
2019-05-09T16:52:19.474Z,98823.69
2019-05-09T16:54:53.428Z,98823.69
2019-05-09T16:57:27.489Z,98825.52
2019-05-09T16:59:58.743Z,98827.95
2019-05-09T17:02:29.398Z,98829.45
2019-05-09T17:05:01.747Z,98826.44
2019-05-09T17:07:32.467Z,98826.30
2019-05-09T17:10:04.162Z,98833.58
2019-05-09T17:12:37.316Z,98830.98
2019-05-09T17:15:09.391Z,98835.69
2019-05-09T17:17:41.326Z,98828.65
2019-05-09T17:20:14.959Z,98830.77
2019-05-09T17:23:11.696Z,98836.52
2019-05-09T17:25:39.373Z,98831.22
2019-05-09T17:28:11.305Z,98831.22
2019-05-09T17:30:42.815Z,98836.67
2019-05-09T17:33:14.690Z,98842.03
2019-05-09T17:35:45.467Z,98841.55
2019-05-09T17:38:18.048Z,98841.55
2019-05-09T17:40:50.290Z,98845.80
2019-05-09T17:43:22.073Z,98849.44
2019-05-09T17:45:53.784Z,98848.08
2019-05-09T17:48:24.678Z,98848.61
2019-05-09T17:50:57.874Z,98854.91
2019-05-09T17:55:18.178Z,98860.52
2019-05-09T17:57:50.368Z,98860.52
2019-05-09T18:00:23.747Z,98863.83
2019-05-09T18:02:54.644Z,98859.31
2019-05-09T18:05:26.393Z,98866.13
2019-05-09T18:07:58.070Z,98868.16
2019-05-09T18:10:29.839Z,98863.38
2019-05-09T18:13:01.412Z,98866.53
2019-05-09T18:15:33.313Z,98865.80
2019-05-09T18:18:04.870Z,98861.64
2019-05-09T18:20:37.978Z,98866.80
2019-05-09T18:23:09.734Z,98869.86
2019-05-09T18:25:40.922Z,98867.79
2019-05-09T18:28:12.786Z,98869.38
2019-05-09T18:30:43.462Z,98874.97
2019-05-09T18:33:21.445Z,98878.02
2019-05-09T18:35:53.303Z,98871.13
2019-05-09T18:38:34.283Z,98873.10
2019-05-09T18:41:09.535Z,98874.92
2019-05-09T18:43:39.729Z,98879.55
2019-05-09T18:46:10.482Z,98883.86
2019-05-09T18:48:42.305Z,98888.27
2019-05-09T18:51:13.898Z,98886.91
2019-05-09T18:53:45.748Z,98891.14
2019-05-09T18:56:16.440Z,98895.23
2019-05-09T18:58:48.311Z,98898.39
2019-05-09T19:01:20.375Z,98902.69
2019-05-09T19:06:33.870Z,98905.67
2019-05-09T19:09:06.328Z,98914.67
2019-05-09T19:11:38.704Z,98913.23
2019-05-09T19:14:12.431Z,98913.98
2019-05-09T19:16:53.819Z,98921.87
2019-05-09T19:19:32.627Z,98920.10
2019-05-09T19:22:21.055Z,98924.34
2019-05-09T19:24:38.748Z,98924.34
2019-05-09T19:27:09.489Z,98934.25
2019-05-09T19:29:41.311Z,98930.75
2019-05-09T19:32:12.785Z,98938.77
2019-05-09T19:34:44.515Z,98943.00
2019-05-09T19:37:16.306Z,98939.50
2019-05-09T19:39:47.860Z,98942.80
2019-05-09T19:42:19.690Z,98942.95
2019-05-09T19:44:51.417Z,98936.55
2019-05-09T19:47:23.303Z,98936.55
2019-05-09T19:49:55.059Z,98947.80
2019-05-09T19:52:37.880Z,98951.72
2019-05-09T19:55:00.632Z,98952.49
2019-05-09T19:57:32.612Z,98957.41
2019-05-09T20:00:04.077Z,98957.41
2019-05-09T20:03:19.613Z,98956.66
2019-05-09T20:05:51.252Z,98963.68
2019-05-09T20:08:23.162Z,98959.39
2019-05-09T20:11:21.066Z,98963.52
2019-05-09T20:14:11.435Z,98970.41
2019-05-09T20:16:46.688Z,98967.14
2019-05-09T20:19:18.361Z,98950.38
2019-05-09T20:21:50.066Z,98950.38
2019-05-09T20:24:22.314Z,98974.85
2019-05-09T20:26:53.824Z,98972.01
2019-05-09T20:29:25.783Z,98979.06
2019-05-09T20:31:56.455Z,98982.94
2019-05-09T20:34:28.310Z,98979.06
2019-05-09T20:36:59.856Z,98984.68
2019-05-09T20:41:27.048Z,98987.41
2019-05-09T20:43:59.055Z,98992.17
2019-05-09T20:46:31.274Z,98994.98
2019-05-09T20:49:03.748Z,98995.73
2019-05-09T20:51:34.884Z,98994.90
2019-05-09T20:54:20.009Z,99000.88
2019-05-09T20:56:40.534Z,99003.06
2019-05-09T20:59:12.377Z,99002.53
2019-05-09T21:01:44.316Z,98999.34
2019-05-09T21:04:16.310Z,99003.06
2019-05-09T21:06:48.410Z,99010.20
2019-05-09T21:09:20.349Z,99013.34
2019-05-09T21:11:52.309Z,99013.78
2019-05-09T21:14:24.301Z,99015.14
2019-05-09T21:16:56.339Z,99017.98
2019-05-09T21:19:28.310Z,99016.77
2019-05-09T21:22:00.361Z,99020.11
2019-05-09T21:24:32.326Z,99018.75
2019-05-09T21:27:04.316Z,99023.66
2019-05-09T21:29:36.332Z,99024.11
2019-05-09T21:32:08.307Z,99022.59
2019-05-09T21:34:39.842Z,99026.20
2019-05-09T21:37:13.902Z,99030.82
2019-05-09T21:39:45.350Z,99026.94
2019-05-09T21:42:16.836Z,99029.37
2019-05-09T21:44:48.615Z,99033.47
2019-05-09T21:47:20.461Z,99032.06
2019-05-09T21:49:52.274Z,99032.06
2019-05-09T21:52:23.838Z,99037.16
2019-05-09T21:54:55.605Z,99042.72
2019-05-09T21:57:28.320Z,99044.81
2019-05-09T22:01:01.334Z,99045.59
2019-05-09T22:03:32.955Z,99045.59
2019-05-09T22:06:04.774Z,99060.02
2019-05-09T22:08:36.437Z,99062.01
2019-05-09T22:11:08.329Z,99061.77
2019-05-09T22:13:40.007Z,99067.02
2019-05-09T22:16:11.770Z,99070.86
2019-05-09T22:18:42.460Z,99067.85
2019-05-09T22:21:23.329Z,99075.09
2019-05-09T22:23:56.721Z,99076.98
2019-05-09T22:26:28.370Z,99075.97
2019-05-09T22:29:00.047Z,99075.97
2019-05-09T22:31:31.794Z,99078.48
2019-05-09T22:34:03.362Z,99080.48
2019-05-09T22:36:35.075Z,99082.03
2019-05-09T22:39:08.318Z,99086.22
2019-05-09T22:41:39.898Z,99080.78
2019-05-09T22:44:11.654Z,99080.16
2019-05-09T22:46:43.755Z,99066.83
2019-05-09T22:49:14.481Z,99066.83
2019-05-09T22:51:46.280Z,99082.05
2019-05-09T22:54:17.854Z,99082.05
2019-05-09T22:56:49.805Z,99083.41
2019-05-09T22:59:21.389Z,99092.09
2019-05-09T23:01:53.019Z,99091.38
2019-05-09T23:04:24.784Z,99084.70
2019-05-09T23:06:56.655Z,99100.06
2019-05-09T23:09:28.349Z,99101.42
2019-05-09T23:12:07.529Z,99101.42
2019-05-09T23:14:38.871Z,99096.72
2019-05-09T23:17:11.498Z,99094.42
2019-05-09T23:19:43.325Z,99099.23
2019-05-09T23:22:15.073Z,99098.21
2019-05-09T23:24:46.737Z,99103.22
2019-05-09T23:27:19.978Z,99104.28
2019-05-09T23:29:51.393Z,99103.31
2019-05-09T23:32:36.309Z,99106.91
2019-05-09T23:35:07.861Z,99100.93
2019-05-09T23:37:39.390Z,99103.45
2019-05-09T23:40:11.306Z,99107.00
2019-05-09T23:42:43.622Z,99110.84
2019-05-09T23:45:15.346Z,99093.20
2019-05-09T23:47:46.937Z,99093.20
2019-05-09T23:50:18.739Z,99113.67
2019-05-09T23:52:49.495Z,99112.97
2019-05-09T23:55:39.010Z,99116.13
2019-05-09T23:58:28.352Z,99120.93
